Time;durP1;ratioP1;P1;durP2;ratioP2;P2;SDS_P1;SDS_P2;PMS_P1;PMS_P2;Temp;Humidity;BMP_temperature;BMP_pressure;BME280_temperature;BME280_humidity;BME280_pressure;Samples;Min_cycle;Max_cycle;Signal;HPM_P1;HPM_P2
2023/08/28 00:00:59;;;;;;;;;;;;;;;20.87;59.71;100506.63;5028412;28;4245;-64
2023/08/28 00:03:25;;;;;;;;;;;;;;;20.89;59.17;100509.59;5027357;28;4070;-66
2023/08/28 00:05:52;;;;;;;;;;;;;;;20.89;59.02;100515.34;5027579;28;4123;-66
2023/08/28 00:08:19;;;;;;;;;;;;;;;20.86;59.03;100510.16;5025616;28;4128;-66
2023/08/28 00:10:45;;;;;;;;;;;;;;;20.84;59.05;100513.69;5028546;28;4291;-66
2023/08/28 00:13:11;;;;;;;;;;;;;;;20.79;58.96;100517.81;5028393;28;4028;-66
2023/08/28 00:15:38;;;;;;;;;;;;;;;20.82;58.76;100519.38;5027130;28;4198;-66
2023/08/28 00:18:04;;;;;;;;;;;;;;;20.81;58.49;100525.78;5027619;28;4184;-66
2023/08/28 00:20:31;;;;;;;;;;;;;;;20.80;58.66;100519.31;5029667;28;4191;-66
2023/08/28 00:22:58;;;;;;;;;;;;;;;20.79;58.47;100529.31;5026979;28;4135;-66
2023/08/28 00:25:24;;;;;;;;;;;;;;;20.75;58.77;100517.66;5026424;28;4680;-66
2023/08/28 00:27:50;;;;;;;;;;;;;;;20.79;58.31;100532.19;5024527;28;4004;-66
2023/08/28 00:30:17;;;;;;;;;;;;;;;20.80;58.22;100532.94;5028581;28;4203;-66
2023/08/28 00:32:44;;;;;;;;;;;;;;;20.79;58.28;100540.84;5024469;28;4016;-66
2023/08/28 00:35:10;;;;;;;;;;;;;;;20.75;58.37;100540.66;5023418;28;4517;-66
2023/08/28 00:37:37;;;;;;;;;;;;;;;20.68;58.12;100544.69;5042618;28;4531;-66
2023/08/28 00:40:03;;;;;;;;;;;;;;;20.74;58.04;100542.06;5041760;28;4132;-66
2023/08/28 00:42:30;;;;;;;;;;;;;;;20.74;58.24;100542.06;5025634;28;5130;-66
2023/08/28 00:44:56;;;;;;;;;;;;;;;20.75;57.65;100548.56;5025963;28;4085;-66
2023/08/28 00:47:23;;;;;;;;;;;;;;;20.71;57.99;100549.16;5028001;28;4050;-66
2023/08/28 00:49:50;;;;;;;;;;;;;;;20.63;58.06;100551.69;5038794;28;4595;-65
2023/08/28 00:52:17;;;;;;;;;;;;;;;20.65;57.95;100543.16;5038007;28;3967;-66
2023/08/28 00:54:43;;;;;;;;;;;;;;;20.64;58.09;100541.69;5027524;28;4259;-66
2023/08/28 00:57:10;;;;;;;;;;;;;;;20.64;57.84;100547.44;5027237;28;4952;-63
2023/08/28 00:59:36;;;;;;;;;;;;;;;20.66;57.58;100551.13;5027518;28;4149;-68
2023/08/28 01:02:05;;;;;;;;;;;;;;;20.65;57.53;100548.91;5027107;28;4438;-66
2023/08/28 01:04:32;;;;;;;;;;;;;;;20.61;57.61;100554.50;5022917;28;4064;-66
2023/08/28 01:07:01;;;;;;;;;;;;;;;20.61;57.48;100566.00;5024184;28;4196;-66
2023/08/28 01:09:49;;;;;;;;;;;;;;;20.62;57.53;100564.63;5030225;28;4415;-66
2023/08/28 01:12:26;;;;;;;;;;;;;;;20.59;57.75;100568.78;5024696;28;4237;-66
2023/08/28 01:14:58;;;;;;;;;;;;;;;20.51;57.73;100581.41;5027153;28;5138;-66
2023/08/28 01:17:26;;;;;;;;;;;;;;;20.47;58.00;100574.75;5035018;28;5441;-66
2023/08/28 01:19:53;;;;;;;;;;;;;;;20.50;57.79;100568.44;5023793;28;4185;-66
2023/08/28 01:22:22;;;;;;;;;;;;;;;20.48;57.71;100571.22;5022442;28;4155;-66
2023/08/28 01:24:51;;;;;;;;;;;;;;;20.46;57.78;100562.53;5038823;28;4034;-66
2023/08/28 01:31:17;;;;;;;;;;;;;;;20.41;57.61;100566.63;5015534;28;4470;-66
2023/08/28 01:33:43;;;;;;;;;;;;;;;20.40;57.81;100570.88;5031189;28;4085;-66
2023/08/28 01:36:12;;;;;;;;;;;;;;;20.41;57.61;100572.38;5045010;28;4682;-66
2023/08/28 01:38:41;;;;;;;;;;;;;;;20.43;57.44;100572.47;5016338;28;4705;-66
2023/08/28 01:41:07;;;;;;;;;;;;;;;20.39;57.57;100572.28;5044705;28;4129;-66
2023/08/28 01:43:34;;;;;;;;;;;;;;;20.36;57.66;100570.72;5026783;28;4231;-66
2023/08/28 01:46:01;;;;;;;;;;;;;;;20.39;57.36;100575.16;5038032;28;4137;-66
2023/08/28 01:48:32;;;;;;;;;;;;;;;20.34;57.43;100573.53;5045444;28;3975;-67
2023/08/28 01:50:59;;;;;;;;;;;;;;;20.34;57.57;100570.66;5048091;28;4225;-66
2023/08/28 01:53:25;;;;;;;;;;;;;;;20.28;57.61;100576.13;5026485;28;4331;-66
2023/08/28 01:56:08;;;;;;;;;;;;;;;20.26;57.65;100578.94;5045031;28;4213;-67
2023/08/28 01:58:41;;;;;;;;;;;;;;;20.28;57.53;100567.50;5027144;28;4107;-67
2023/08/28 02:01:08;;;;;;;;;;;;;;;20.20;57.52;100558.53;5044335;28;4082;-67
2023/08/28 02:03:36;;;;;;;;;;;;;;;20.22;57.71;100553.59;5028134;28;4931;-67
2023/08/28 02:06:02;;;;;;;;;;;;;;;20.20;57.69;100552.78;5027957;28;4163;-66
2023/08/28 02:08:29;;;;;;;;;;;;;;;20.24;57.63;100558.72;5028177;28;4324;-67
2023/08/28 02:10:57;;;;;;;;;;;;;;;20.24;57.46;100558.72;5047891;28;4100;-66
2023/08/28 02:13:24;;;;;;;;;;;;;;;20.21;57.60;100560.03;5023899;28;4320;-67
2023/08/28 02:15:50;;;;;;;;;;;;;;;20.20;57.30;100553.53;5026718;28;4131;-66
2023/08/28 02:18:17;;;;;;;;;;;;;;;20.15;57.39;100546.13;5040569;28;4052;-66
2023/08/28 02:20:44;;;;;;;;;;;;;;;20.12;57.49;100556.06;5028795;28;5163;-67
2023/08/28 02:23:11;;;;;;;;;;;;;;;20.16;57.47;100549.72;5027888;28;4550;-67
2023/08/28 02:25:40;;;;;;;;;;;;;;;20.12;57.51;100556.06;5030865;28;4006;-67
2023/08/28 02:28:07;;;;;;;;;;;;;;;20.15;57.16;100557.63;5026275;28;4120;-66
2023/08/28 02:30:33;;;;;;;;;;;;;;;20.11;57.45;100556.72;5046289;28;4163;-67
2023/08/28 02:33:00;;;;;;;;;;;;;;;20.09;57.42;100566.00;5027388;28;4143;-66
2023/08/28 02:35:27;;;;;;;;;;;;;;;20.03;57.47;100563.59;5027634;28;3941;-66
2023/08/28 02:37:53;;;;;;;;;;;;;;;20.03;57.55;100572.22;5030758;28;4139;-67
2023/08/28 02:40:20;;;;;;;;;;;;;;;20.05;57.51;100562.94;5029002;28;4802;-67
2023/08/28 02:42:46;;;;;;;;;;;;;;;19.99;57.42;100563.41;5028311;28;4094;-67
2023/08/28 02:45:12;;;;;;;;;;;;;;;19.99;57.20;100569.16;5025682;28;4233;-66
2023/08/28 02:47:39;;;;;;;;;;;;;;;19.95;56.94;100580.50;5046140;28;4141;-66
2023/08/28 02:50:06;;;;;;;;;;;;;;;19.97;57.17;100583.44;5044303;28;3961;-66
2023/08/28 02:52:32;;;;;;;;;;;;;;;19.93;57.00;100583.28;5029345;28;4524;-66
2023/08/28 02:54:59;;;;;;;;;;;;;;;19.91;57.50;100583.19;5027345;28;3958;-66
2023/08/28 02:57:25;;;;;;;;;;;;;;;19.97;57.30;100588.44;5027325;28;4192;-67
2023/08/28 02:59:52;;;;;;;;;;;;;;;19.98;57.36;100593.56;5044062;28;4070;-67
2023/08/28 03:02:18;;;;;;;;;;;;;;;20.02;57.39;100596.63;5040415;28;4232;-66
2023/08/28 03:04:45;;;;;;;;;;;;;;;19.97;57.50;100600.69;5023237;28;4148;-66
2023/08/28 03:07:11;;;;;;;;;;;;;;;19.96;57.65;100604.97;5026195;28;4195;-66
2023/08/28 03:09:37;;;;;;;;;;;;;;;20.01;57.27;100609.50;5028649;28;4190;-67
2023/08/28 03:12:04;;;;;;;;;;;;;;;19.99;57.31;100615.16;5043083;28;4170;-66
2023/08/28 03:14:32;;;;;;;;;;;;;;;20.01;57.59;100623.84;5024316;28;4352;-66
2023/08/28 03:16:59;;;;;;;;;;;;;;;19.93;57.59;100623.53;5026624;28;4156;-66
2023/08/28 03:19:25;;;;;;;;;;;;;;;19.91;57.70;100614.81;5032641;28;4045;-66
2023/08/28 03:21:52;;;;;;;;;;;;;;;19.89;57.66;100617.59;5041737;28;4156;-67
2023/08/28 03:24:18;;;;;;;;;;;;;;;19.88;57.73;100616.84;5026394;28;4140;-67
2023/08/28 03:26:46;;;;;;;;;;;;;;;19.87;57.68;100608.88;5030585;28;4374;-66
2023/08/28 03:29:12;;;;;;;;;;;;;;;19.84;57.97;100618.81;5024177;28;4153;-66
2023/08/28 03:31:39;;;;;;;;;;;;;;;19.84;57.79;100618.81;5035272;28;4191;-66
2023/08/28 03:34:05;;;;;;;;;;;;;;;19.83;57.63;100628.78;5025736;28;4131;-67
2023/08/28 03:36:32;;;;;;;;;;;;;;;19.84;57.38;100630.28;5030531;28;4236;-67
2023/08/28 03:38:59;;;;;;;;;;;;;;;19.92;57.44;100627.03;5026529;28;4315;-66
2023/08/28 03:41:25;;;;;;;;;;;;;;;19.93;57.06;100632.13;5027908;28;4177;-66
2023/08/28 03:43:52;;;;;;;;;;;;;;;19.88;57.07;100639.06;5040682;28;4967;-66
2023/08/28 03:46:20;;;;;;;;;;;;;;;19.85;57.21;100649.00;5041228;28;4174;-66
2023/08/28 03:48:46;;;;;;;;;;;;;;;19.87;57.25;100644.09;5026223;28;4194;-66
2023/08/28 03:51:13;;;;;;;;;;;;;;;19.85;57.27;100635.38;5042405;28;4477;-66
2023/08/28 03:53:40;;;;;;;;;;;;;;;19.85;57.23;100646.13;5022569;28;4025;-67
2023/08/28 03:56:06;;;;;;;;;;;;;;;19.86;57.24;100636.88;5022004;28;4161;-66
2023/08/28 03:58:33;;;;;;;;;;;;;;;19.86;57.44;100639.00;5027340;28;4236;-67
2023/08/28 04:00:59;;;;;;;;;;;;;;;19.80;57.46;100638.72;5028044;28;4247;-65
2023/08/28 04:03:25;;;;;;;;;;;;;;;19.79;57.48;100637.22;5021483;28;4110;-66
2023/08/28 04:05:52;;;;;;;;;;;;;;;19.81;57.40;100640.19;5043542;28;4151;-66
2023/08/28 04:08:21;;;;;;;;;;;;;;;19.79;57.40;100638.00;5040780;28;4113;-67
2023/08/28 04:10:47;;;;;;;;;;;;;;;19.77;57.49;100637.91;5030735;28;4135;-67
2023/08/28 04:13:14;;;;;;;;;;;;;;;19.82;57.53;100630.19;5038514;28;4383;-66
2023/08/28 04:15:40;;;;;;;;;;;;;;;19.84;57.23;100627.41;5037567;28;5246;-67
2023/08/28 04:18:07;;;;;;;;;;;;;;;19.79;57.48;100620.75;5037648;28;4159;-66
2023/08/28 04:20:34;;;;;;;;;;;;;;;19.74;57.62;100629.81;5040092;28;4108;-66
2023/08/28 04:23:01;;;;;;;;;;;;;;;19.77;57.40;100608.41;5026672;28;4146;-66
2023/08/28 04:25:28;;;;;;;;;;;;;;;19.76;57.49;100607.66;5042094;28;4113;-69
2023/08/28 04:27:55;;;;;;;;;;;;;;;19.56;57.66;100609.59;5019186;28;4015;-62
2023/08/28 04:30:23;;;;;;;;;;;;;;;19.23;58.80;100608.84;5018188;28;4178;-66
2023/08/28 04:32:51;;;;;;;;;;;;;;;19.15;58.70;100597.00;5038440;28;4238;-66
2023/08/28 04:35:17;;;;;;;;;;;;;;;19.06;58.97;100595.13;5039105;28;5137;-66
2023/08/28 04:37:44;;;;;;;;;;;;;;;19.11;58.63;100596.06;5035289;28;4023;-62
2023/08/28 04:40:10;;;;;;;;;;;;;;;19.28;58.42;100591.81;5019301;28;4049;-62
2023/08/28 04:42:37;;;;;;;;;;;;;;;19.54;57.69;100595.91;5027332;28;4250;-63
2023/08/28 04:45:03;;;;;;;;;;;;;;;19.79;57.09;100582.63;5022971;28;4098;-62
2023/08/28 04:47:30;;;;;;;;;;;;;;;19.92;56.78;100587.53;5025758;28;3970;-63
2023/08/28 04:49:56;;;;;;;;;;;;;;;19.99;56.90;100588.53;5027214;28;4361;-63
2023/08/28 04:52:23;;;;;;;;;;;;;;;20.02;56.90;100590.09;5040629;28;4905;-63
2023/08/28 04:54:49;;;;;;;;;;;;;;;20.06;56.63;100578.78;5043275;28;4091;-63
2023/08/28 04:57:16;;;;;;;;;;;;;;;20.08;56.63;100582.50;5025159;28;4171;-62
2023/08/28 04:59:42;;;;;;;;;;;;;;;20.13;56.76;100579.78;5042835;28;4750;-63
2023/08/28 05:02:09;;;;;;;;;;;;;;;20.15;56.61;100574.13;5047428;28;4184;-62
2023/08/28 05:04:35;;;;;;;;;;;;;;;20.17;56.58;100582.84;5042668;28;4170;-63
2023/08/28 05:07:03;;;;;;;;;;;;;;;20.17;56.67;100597.97;5027322;28;6186;-62
2023/08/28 05:09:29;;;;;;;;;;;;;;;20.19;56.52;100600.19;5046237;28;4008;-63
2023/08/28 05:11:55;;;;;;;;;;;;;;;20.19;56.83;100591.56;5042694;28;4207;-63
2023/08/28 05:14:22;;;;;;;;;;;;;;;20.19;56.86;100598.03;5025190;28;4042;-63
2023/08/28 05:16:48;;;;;;;;;;;;;;;20.20;56.57;100598.78;5024056;28;4046;-63
2023/08/28 05:19:15;;;;;;;;;;;;;;;20.20;56.72;100593.03;5028071;28;4131;-63
2023/08/28 05:21:42;;;;;;;;;;;;;;;20.21;56.77;100597.41;5023866;28;4301;-63
2023/08/28 05:24:09;;;;;;;;;;;;;;;20.22;56.82;100590.25;5026420;28;4180;-62
2023/08/28 05:26:36;;;;;;;;;;;;;;;20.23;56.92;100597.50;5027358;28;4202;-63
2023/08/28 05:29:02;;;;;;;;;;;;;;;20.25;56.94;100594.72;5024140;28;4318;-62
2023/08/28 05:31:29;;;;;;;;;;;;;;;20.24;57.04;100590.34;5026664;28;4159;-63
2023/08/28 05:33:55;;;;;;;;;;;;;;;20.26;56.86;100596.91;5028043;28;4202;-63
2023/08/28 05:36:21;;;;;;;;;;;;;;;20.26;56.82;100593.31;5024284;28;4123;-63
2023/08/28 05:38:48;;;;;;;;;;;;;;;20.28;56.91;100593.38;5027256;28;4363;-63
2023/08/28 05:41:15;;;;;;;;;;;;;;;20.29;56.86;100600.59;5026848;28;4017;-64
2023/08/28 05:43:44;;;;;;;;;;;;;;;20.28;56.81;100587.63;5043035;28;4082;-63
2023/08/28 05:46:11;;;;;;;;;;;;;;;20.29;57.02;100594.84;5044595;28;4029;-63
2023/08/28 05:48:38;;;;;;;;;;;;;;;20.29;57.03;100595.63;5041463;28;4154;-63
2023/08/28 05:51:05;;;;;;;;;;;;;;;20.29;56.93;100606.34;5024866;28;4163;-63
2023/08/28 05:53:32;;;;;;;;;;;;;;;20.30;57.16;100613.59;5046753;28;4566;-61
2023/08/28 05:55:58;;;;;;;;;;;;;;;20.29;56.76;100606.34;5029636;28;4095;-63
2023/08/28 05:58:25;;;;;;;;;;;;;;;20.30;56.98;100619.34;5024259;28;4148;-62
2023/08/28 06:00:51;;;;;;;;;;;;;;;20.30;57.02;100619.34;5031258;28;4022;-62
2023/08/28 06:03:18;;;;;;;;;;;;;;;20.29;56.98;100623.63;5041957;28;4213;-62
2023/08/28 06:05:45;;;;;;;;;;;;;;;20.29;57.16;100623.63;5021593;28;4335;-62
2023/08/28 06:08:11;;;;;;;;;;;;;;;20.29;57.17;100635.13;5029863;28;4123;-63
2023/08/28 06:10:40;;;;;;;;;;;;;;;20.30;56.91;100636.59;5027059;28;4542;-63
2023/08/28 06:13:09;;;;;;;;;;;;;;;20.31;56.81;100626.56;5025676;28;4129;-63
2023/08/28 06:15:36;;;;;;;;;;;;;;;20.30;56.86;100639.47;5028207;28;4160;-63
2023/08/28 06:18:02;;;;;;;;;;;;;;;20.32;57.00;100636.69;5046303;28;3997;-62
2023/08/28 06:20:29;;;;;;;;;;;;;;;20.33;56.90;100623.78;5044808;28;4252;-62
2023/08/28 06:22:55;;;;;;;;;;;;;;;20.33;57.01;100623.06;5042009;28;4171;-62
2023/08/28 06:25:22;;;;;;;;;;;;;;;20.32;56.77;100639.56;5044450;28;4506;-62
2023/08/28 06:27:49;;;;;;;;;;;;;;;20.32;56.93;100642.44;5029129;28;3987;-62
2023/08/28 06:30:16;;;;;;;;;;;;;;;20.34;56.70;100642.53;5042918;28;4161;-62
2023/08/28 06:32:42;;;;;;;;;;;;;;;20.32;56.89;100635.94;5029912;28;4012;-62
2023/08/28 06:35:09;;;;;;;;;;;;;;;20.32;57.16;100633.06;5029665;28;4148;-62
2023/08/28 06:37:35;;;;;;;;;;;;;;;20.30;56.84;100639.47;5029291;28;4196;-62
2023/08/28 06:40:03;;;;;;;;;;;;;;;20.35;56.97;100634.66;5033752;28;4112;-63
2023/08/28 06:42:30;;;;;;;;;;;;;;;20.37;56.72;100638.34;5028087;28;4180;-62
2023/08/28 06:44:56;;;;;;;;;;;;;;;20.40;56.99;100645.66;5040733;28;3964;-62
2023/08/28 06:47:26;;;;;;;;;;;;;;;20.39;57.01;100649.22;5028709;28;4195;-62
2023/08/28 06:49:53;;;;;;;;;;;;;;;20.39;56.89;100644.19;5028020;28;3892;-62
2023/08/28 06:52:19;;;;;;;;;;;;;;;20.41;56.83;100647.16;5033097;28;4149;-63
2023/08/28 06:54:46;;;;;;;;;;;;;;;20.42;57.02;100650.75;5030818;28;4268;-63
2023/08/28 06:57:17;;;;;;;;;;;;;;;20.43;56.75;100644.38;5025501;28;4112;-63
2023/08/28 06:59:44;;;;;;;;;;;;;;;20.41;56.88;100641.41;5032092;28;4425;-63
2023/08/28 07:02:11;;;;;;;;;;;;;;;20.41;57.06;100647.16;5031802;28;4234;-62
2023/08/28 07:04:37;;;;;;;;;;;;;;;20.42;57.07;100651.50;5030671;28;4038;-65
2023/08/28 07:07:03;;;;;;;;;;;;;;;20.43;56.88;100644.38;5027910;28;4272;-67
2023/08/28 07:09:30;;;;;;;;;;;;;;;20.43;56.82;100637.84;5032686;28;4356;-67
2023/08/28 07:11:56;;;;;;;;;;;;;;;20.44;56.91;100651.59;5029350;28;4182;-67
2023/08/28 07:14:24;;;;;;;;;;;;;;;20.44;57.22;100656.59;5029334;28;4231;-68
2023/08/28 07:16:50;;;;;;;;;;;;;;;20.49;56.93;100664.00;5033872;28;4308;-67
2023/08/28 07:19:16;;;;;;;;;;;;;;;20.55;56.74;100675.03;5029533;28;4121;-73
2023/08/28 07:21:43;;;;;;;;;;;;;;;20.63;56.66;100672.53;5029584;28;4460;-71
2023/08/28 07:24:09;;;;;;;;;;;;;;;20.60;57.14;100656.59;5033282;28;3987;-71
2023/08/28 07:26:36;;;;;;;;;;;;;;;20.51;57.21;100664.84;5025675;28;4329;-71
2023/08/28 07:29:02;;;;;;;;;;;;;;;20.36;57.50;100668.50;5026727;28;4485;-72
2023/08/28 07:31:29;;;;;;;;;;;;;;;20.45;57.27;100675.34;5026920;28;4232;-72
2023/08/28 07:33:55;;;;;;;;;;;;;;;20.50;57.16;100677.75;5032264;28;4001;-72
2023/08/28 07:36:22;;;;;;;;;;;;;;;20.55;56.88;100675.03;5031866;28;4549;-72
2023/08/28 07:38:49;;;;;;;;;;;;;;;20.58;56.71;100679.50;5042320;28;4037;-71
2023/08/28 07:41:18;;;;;;;;;;;;;;;20.59;57.01;100690.38;5026831;28;3909;-72
2023/08/28 07:43:45;;;;;;;;;;;;;;;20.61;56.90;100692.56;5031059;28;4150;-72
2023/08/28 07:46:11;;;;;;;;;;;;;;;20.63;56.83;100684.03;5027136;28;4193;-71
2023/08/28 07:48:38;;;;;;;;;;;;;;;20.63;56.88;100678.28;5032363;28;4254;-71
2023/08/28 07:51:04;;;;;;;;;;;;;;;20.64;56.77;100674.75;5030847;28;4020;-70
2023/08/28 07:53:30;;;;;;;;;;;;;;;20.65;56.83;100672.63;5028983;28;3934;-71
2023/08/28 07:55:57;;;;;;;;;;;;;;;20.65;56.83;100678.38;5029791;28;4156;-72
2023/08/28 07:58:23;;;;;;;;;;;;;;;20.66;57.04;100671.22;5033319;28;4268;-71
2023/08/28 08:00:50;;;;;;;;;;;;;;;20.65;56.83;100670.47;5029520;28;4157;-72
2023/08/28 08:03:18;;;;;;;;;;;;;;;20.68;56.91;100679.94;5028738;28;4174;-71
2023/08/28 08:05:45;;;;;;;;;;;;;;;20.68;57.13;100665.53;5027618;28;4116;-71
2023/08/28 08:08:11;;;;;;;;;;;;;;;20.69;56.89;100675.66;5029558;28;4262;-71
2023/08/28 08:10:37;;;;;;;;;;;;;;;20.69;57.09;100675.66;5031146;28;4198;-72
2023/08/28 08:13:04;;;;;;;;;;;;;;;20.70;56.97;100671.38;5026730;28;4027;-72
2023/08/28 08:15:31;;;;;;;;;;;;;;;20.71;57.17;100667.13;5028356;28;4352;-71
2023/08/28 08:17:58;;;;;;;;;;;;;;;20.69;57.09;100664.16;5027990;28;4110;-71
2023/08/28 08:20:24;;;;;;;;;;;;;;;20.71;57.36;100664.25;5027367;28;4021;-72
2023/08/28 08:22:52;;;;;;;;;;;;;;;20.72;57.14;100651.34;5025459;28;4434;-71
2023/08/28 08:25:22;;;;;;;;;;;;;;;20.77;57.25;100661.59;5024576;28;4132;-72
2023/08/28 08:27:48;;;;;;;;;;;;;;;20.78;57.22;100656.63;5031003;28;4108;-71
2023/08/28 08:30:14;;;;;;;;;;;;;;;20.77;57.48;100652.97;5030420;28;3875;-71
2023/08/28 08:32:43;;;;;;;;;;;;;;;20.81;57.12;100647.38;5029018;28;4140;-71
2023/08/28 08:35:11;;;;;;;;;;;;;;;20.80;57.45;100650.91;5023332;28;5064;-72
2023/08/28 08:37:40;;;;;;;;;;;;;;;20.84;57.02;100651.81;5029771;28;4397;-71
2023/08/28 08:40:11;;;;;;;;;;;;;;;20.74;57.45;100639.91;5023592;28;4054;-72
2023/08/28 08:42:38;;;;;;;;;;;;;;;20.66;57.56;100643.19;5024545;28;4116;-70
2023/08/28 08:45:05;;;;;;;;;;;;;;;20.58;57.71;100633.47;5029486;28;4186;-70
2023/08/28 08:47:31;;;;;;;;;;;;;;;20.64;57.53;100631.59;5026786;28;4022;-72
2023/08/28 08:49:57;;;;;;;;;;;;;;;20.69;57.20;100635.38;5027246;28;5270;-72
2023/08/28 08:52:24;;;;;;;;;;;;;;;20.75;57.26;100643.53;5042879;28;4435;-71
2023/08/28 08:54:53;;;;;;;;;;;;;;;20.78;56.85;100648.72;5027685;28;4109;-71
2023/08/28 08:57:22;;;;;;;;;;;;;;;20.80;57.10;100640.16;5042205;28;4166;-71
2023/08/28 08:59:50;;;;;;;;;;;;;;;20.83;56.96;100641.72;5027038;28;4045;-72
2023/08/28 09:02:16;;;;;;;;;;;;;;;20.80;57.08;100645.91;5023458;28;4103;-72
2023/08/28 09:04:42;;;;;;;;;;;;;;;20.71;57.33;100638.34;5023449;28;4940;-71
2023/08/28 09:07:09;;;;;;;;;;;;;;;20.78;57.14;100625.69;5025948;28;4185;-71
2023/08/28 09:09:36;;;;;;;;;;;;;;;20.83;57.15;100633.09;5026691;28;4027;-72
2023/08/28 09:12:02;;;;;;;;;;;;;;;20.84;57.04;100634.56;5027238;28;4178;-71
2023/08/28 09:14:31;;;;;;;;;;;;;;;20.85;57.14;100646.84;5027714;28;4206;-70
2023/08/28 09:16:57;;;;;;;;;;;;;;;20.90;57.64;100637.69;5025919;28;4244;-69
2023/08/28 09:19:25;;;;;;;;;;;;;;;20.98;57.38;100642.28;5025438;28;4097;-70
2023/08/28 09:21:52;;;;;;;;;;;;;;;20.96;57.61;100645.09;5029304;28;4080;-69
2023/08/28 09:24:22;;;;;;;;;;;;;;;20.96;57.83;100651.59;5026736;28;4111;-68
2023/08/28 09:26:52;;;;;;;;;;;;;;;20.97;57.80;100663.84;5027844;28;4203;-69
2023/08/28 09:29:22;;;;;;;;;;;;;;;20.92;57.84;100663.69;5026100;28;4157;-69
2023/08/28 09:31:48;;;;;;;;;;;;;;;20.68;58.02;100674.19;5027181;28;4092;-69
2023/08/28 09:34:15;;;;;;;;;;;;;;;20.73;58.01;100663.56;5038719;28;4057;-69
2023/08/28 09:36:41;;;;;;;;;;;;;;;20.80;57.74;100671.81;5025418;28;3995;-69
2023/08/28 09:39:12;;;;;;;;;;;;;;;20.86;57.38;100672.06;5026924;28;4175;-69
2023/08/28 09:41:38;;;;;;;;;;;;;;;20.90;57.44;100677.25;5026807;28;4038;-69
2023/08/28 09:44:04;;;;;;;;;;;;;;;21.01;58.03;100675.53;5024326;28;4036;-73
2023/08/28 09:46:31;;;;;;;;;;;;;;;21.29;57.61;100684.56;5027050;28;4070;-73
2023/08/28 09:48:57;;;;;;;;;;;;;;;21.42;56.56;100677.94;5027636;28;4073;-73
2023/08/28 09:51:28;;;;;;;;;;;;;;;21.39;56.91;100670.56;5040222;28;4087;-73
2023/08/28 09:53:58;;;;;;;;;;;;;;;21.41;57.22;100667.78;5048775;28;4071;-73
2023/08/28 09:56:31;;;;;;;;;;;;;;;21.41;57.20;100678.56;5031802;28;4873;-72
2023/08/28 09:58:57;;;;;;;;;;;;;;;21.46;57.11;100683.09;5035636;28;4086;-74
2023/08/28 10:01:24;;;;;;;;;;;;;;;21.49;57.09;100676.03;5031381;28;4008;-73
2023/08/28 10:03:51;;;;;;;;;;;;;;;21.50;56.90;100674.59;5031906;28;4142;-73
2023/08/28 10:06:17;;;;;;;;;;;;;;;21.48;57.01;100680.28;5030072;28;4044;-75
2023/08/28 10:08:44;;;;;;;;;;;;;;;21.47;57.14;100673.78;5030795;28;4163;-75
2023/08/28 10:11:10;;;;;;;;;;;;;;;21.51;57.00;100673.22;5032019;28;4143;-74
2023/08/28 10:13:37;;;;;;;;;;;;;;;21.55;56.93;100667.59;5030967;28;4223;-73
2023/08/28 10:16:04;;;;;;;;;;;;;;;21.37;57.39;100669.75;5030685;28;4143;-72
2023/08/28 10:18:34;;;;;;;;;;;;;;;21.40;57.81;100656.91;5032728;28;4146;-73
2023/08/28 10:21:01;;;;;;;;;;;;;;;21.54;56.88;100655.34;5031333;28;4114;-72
2023/08/28 10:23:27;;;;;;;;;;;;;;;21.52;57.17;100654.53;5030617;28;4184;-75
2023/08/28 10:25:54;;;;;;;;;;;;;;;21.54;56.78;100663.97;5032378;28;3921;-73
2023/08/28 10:28:21;;;;;;;;;;;;;;;21.55;56.85;100667.59;5043314;28;4353;-73
2023/08/28 10:30:48;;;;;;;;;;;;;;;21.59;56.94;100656.22;5030778;28;4082;-73
2023/08/28 10:33:15;;;;;;;;;;;;;;;21.59;56.92;100656.22;5029986;28;4476;-74
2023/08/28 10:35:42;;;;;;;;;;;;;;;21.61;56.78;100656.31;5045521;28;4206;-74
2023/08/28 10:38:09;;;;;;;;;;;;;;;21.67;56.45;100655.78;5044298;28;4190;-74
2023/08/28 10:40:36;;;;;;;;;;;;;;;21.69;56.35;100662.41;5030058;28;4092;-76
2023/08/28 10:43:02;;;;;;;;;;;;;;;21.60;56.60;100660.59;5029484;28;4165;-74
2023/08/28 10:45:29;;;;;;;;;;;;;;;21.56;56.95;100651.81;5034786;28;4158;-73
2023/08/28 10:47:56;;;;;;;;;;;;;;;21.58;57.02;100656.88;5037951;28;4154;-76
2023/08/28 10:50:22;;;;;;;;;;;;;;;21.58;56.78;100648.25;5032634;28;4106;-75
2023/08/28 10:52:48;;;;;;;;;;;;;;;21.58;57.04;100654.75;5045583;28;4162;-74
2023/08/28 10:55:18;;;;;;;;;;;;;;;21.59;56.84;100647.59;5027369;28;4176;-75
2023/08/28 10:57:51;;;;;;;;;;;;;;;21.59;56.70;100633.19;5029063;28;3957;-75
2023/08/28 11:00:18;;;;;;;;;;;;;;;21.61;57.03;100624.63;5031454;28;4187;-74
2023/08/28 11:03:05;;;;;;;;;;;;;;;21.65;56.71;100630.53;5028325;28;5084;-73
2023/08/28 11:05:33;;;;;;;;;;;;;;;21.64;57.06;100628.31;5032165;28;4243;-73
2023/08/28 11:08:04;;;;;;;;;;;;;;;21.71;56.52;100627.88;5030704;28;4129;-70
2023/08/28 11:10:30;;;;;;;;;;;;;;;21.64;56.72;100629.03;5029689;28;4311;-69
2023/08/28 11:13:01;;;;;;;;;;;;;;;21.60;56.67;100637.56;5026360;28;3979;-67
2023/08/28 11:15:29;;;;;;;;;;;;;;;21.48;56.57;100645.72;5030840;28;4326;-68
2023/08/28 11:18:14;;;;;;;;;;;;;;;21.42;56.79;100640.47;5026884;28;4106;-68
2023/08/28 11:20:40;;;;;;;;;;;;;;;21.49;56.39;100635.69;5028210;28;4136;-68
2023/08/28 11:23:07;;;;;;;;;;;;;;;21.51;56.51;100645.16;5026095;28;4323;-68
2023/08/28 11:25:37;;;;;;;;;;;;;;;21.51;56.66;100635.78;5026409;28;4014;-69
2023/08/28 11:28:03;;;;;;;;;;;;;;;21.49;56.47;100641.44;5026003;28;4190;-68
2023/08/28 11:30:30;;;;;;;;;;;;;;;21.43;57.18;100638.34;5029339;28;4043;-70
2023/08/28 11:32:56;;;;;;;;;;;;;;;21.51;56.80;100639.38;5026499;28;4060;-69
2023/08/28 11:35:23;;;;;;;;;;;;;;;21.50;56.89;100654.44;5026282;28;3995;-69
2023/08/28 11:37:53;;;;;;;;;;;;;;;21.49;57.03;100652.97;5032255;28;4155;-68
2023/08/28 11:40:20;;;;;;;;;;;;;;;21.48;57.12;100645.72;5047802;28;4213;-69
2023/08/28 11:42:47;;;;;;;;;;;;;;;21.48;57.27;100654.34;5026895;28;4168;-69
2023/08/28 11:45:20;;;;;;;;;;;;;;;21.47;57.02;100664.41;5030368;28;4310;-69
2023/08/28 11:47:51;;;;;;;;;;;;;;;21.47;57.29;100662.28;5030019;28;4417;-69
2023/08/28 11:50:18;;;;;;;;;;;;;;;21.47;57.07;100675.94;5031231;28;4539;-69
2023/08/28 11:52:50;;;;;;;;;;;;;;;21.46;57.04;100672.31;5028314;28;4309;-69
2023/08/28 11:55:19;;;;;;;;;;;;;;;21.45;57.23;100676.59;5029900;28;4006;-69
2023/08/28 11:57:47;;;;;;;;;;;;;;;21.44;57.47;100678.00;5033720;28;4060;-69
2023/08/28 12:00:16;;;;;;;;;;;;;;;21.46;57.44;100674.44;5029317;28;4155;-69
2023/08/28 12:02:43;;;;;;;;;;;;;;;21.45;57.26;100675.84;5037622;28;4217;-69
2023/08/28 12:05:10;;;;;;;;;;;;;;;21.46;57.16;100671.56;5027462;28;4170;-69
2023/08/28 12:07:36;;;;;;;;;;;;;;;21.48;57.48;100668.75;5049830;28;4052;-68
2023/08/28 12:10:03;;;;;;;;;;;;;;;21.47;57.19;100659.38;5041339;28;3894;-67
2023/08/28 12:12:31;;;;;;;;;;;;;;;21.48;57.32;100660.84;5030318;28;4322;-69
2023/08/28 12:14:58;;;;;;;;;;;;;;;21.48;57.46;100668.75;5044575;28;4001;-69
2023/08/28 12:17:26;;;;;;;;;;;;;;;21.48;57.18;100675.25;5032010;28;3998;-69
2023/08/28 12:19:53;;;;;;;;;;;;;;;21.49;57.43;100665.22;5031453;28;4213;-69
2023/08/28 12:22:22;;;;;;;;;;;;;;;21.49;57.31;100658.75;5030105;28;4274;-68
2023/08/28 12:24:49;;;;;;;;;;;;;;;21.49;57.31;100653.72;5028693;28;4375;-68
2023/08/28 12:27:15;;;;;;;;;;;;;;;21.49;57.33;100647.94;5028773;28;4108;-68
2023/08/28 12:29:42;;;;;;;;;;;;;;;21.51;57.31;100661.69;5031092;28;4171;-68
2023/08/28 12:32:09;;;;;;;;;;;;;;;21.50;57.26;100648.69;5030501;28;4121;-68
2023/08/28 12:34:37;;;;;;;;;;;;;;;21.50;57.42;100642.91;5028694;28;4004;-69
2023/08/28 12:37:07;;;;;;;;;;;;;;;21.50;57.42;100637.16;5036017;28;4243;-68
2023/08/28 12:39:34;;;;;;;;;;;;;;;21.50;57.41;100637.16;5032843;28;4021;-69
2023/08/28 12:42:00;;;;;;;;;;;;;;;21.50;57.62;100640.03;5029054;28;4265;-68
2023/08/28 12:44:27;;;;;;;;;;;;;;;21.49;57.31;100629.94;5026871;28;4118;-67
2023/08/28 12:46:54;;;;;;;;;;;;;;;21.49;57.32;100629.94;5024630;28;3956;-68
2023/08/28 12:49:20;;;;;;;;;;;;;;;21.49;57.37;100627.03;5027320;28;4138;-68
2023/08/28 12:51:46;;;;;;;;;;;;;;;21.50;57.44;100622.75;5030346;28;3977;-68